Time;durP1;ratioP1;P1;durP2;ratioP2;P2;SDS_P1;SDS_P2;PMS_P1;PMS_P2;Temp;Humidity;BMP_temperature;BMP_pressure;BME280_temperature;BME280_humidity;BME280_pressure;Samples;Min_cycle;Max_cycle;Signal;HPM_P1;HPM_P2
2023/09/16 00:00:56;;;;;;;;;;;;;;;;;;5021141;28;19952;-59
2023/09/16 00:03:22;;;;;;;;;;;;;;;;;;5017556;28;20157;-59
2023/09/16 00:05:48;;;;;;;;;;;;;;;;;;5019717;28;20371;-60
2023/09/16 00:08:14;;;;;;;;;;;;;;;;;;5017977;28;19925;-58
2023/09/16 00:10:40;;;;;;;;;;;;;;;;;;4993870;28;19929;-58
2023/09/16 00:13:06;;;;;;;;;;;;;;;;;;5017658;28;19979;-59
2023/09/16 00:15:32;;;;;;;;;;;;;;;;;;5017136;28;19933;-59
2023/09/16 00:17:58;;;;;;;;;;;;;;;;;;5010522;28;20380;-59
2023/09/16 00:20:26;;;;;;;;;;;;;;;;;;5018309;28;19929;-59
2023/09/16 00:22:52;;;;;;;;;;;;;;;;;;5010520;28;19936;-61
2023/09/16 00:25:18;;;;;;;;;;;;;;;;;;5012066;28;19933;-59
2023/09/16 00:27:44;;;;;;;;;;;;;;;;;;5015485;28;19978;-60
2023/09/16 00:30:10;;;;;;;;;;;;;;;;;;5017736;28;19929;-59
2023/09/16 00:32:36;;;;;;;;;;;;;;;;;;5016822;28;19925;-59
2023/09/16 00:35:02;;;;;;;;;;;;;;;;;;5009090;28;20413;-59
2023/09/16 00:37:28;;;;;;;;;;;;;;;;;;5010620;28;20019;-58
2023/09/16 00:39:54;;;;;;;;;;;;;;;;;;5008948;28;19921;-58
2023/09/16 00:42:20;;;;;;;;;;;;;;;;;;5018683;28;19925;-58
2023/09/16 00:44:46;;;;;;;;;;;;;;;;;;5015133;28;20343;-58
2023/09/16 00:47:13;;;;;;;;;;;;;;;;;;5016046;28;19933;-58
2023/09/16 00:49:39;;;;;;;;;;;;;;;;;;5013714;28;19968;-58
2023/09/16 00:52:05;;;;;;;;;;;;;;;;;;5019328;28;19963;-59
2023/09/16 00:54:31;;;;;;;;;;;;;;;;;;5001966;28;20306;-59
2023/09/16 00:56:57;;;;;;;;;;;;;;;;;;5019297;28;19932;-58
2023/09/16 00:59:23;;;;;;;;;;;;;;;;;;5018658;28;19925;-59
2023/09/16 01:01:50;;;;;;;;;;;;;;;;;;5020140;28;19925;-59
2023/09/16 01:04:16;;;;;;;;;;;;;;;;;;5115930;22;20393;-58
2023/09/16 01:06:43;;;;;;;;;;;;;;;;;;5043939;28;19964;-57
2023/09/16 01:09:10;;;;;;;;;;;;;;;;;;5045207;28;19925;-57
2023/09/16 01:11:36;;;;;;;;;;;;;;;;;;5040874;28;19924;-57
2023/09/16 01:14:03;;;;;;;;;;;;;;;;;;5048570;28;19952;-57
2023/09/16 01:16:29;;;;;;;;;;;;;;;;;;5035553;28;19971;-58
2023/09/16 01:18:55;;;;;;;;;;;;;;;;;;5045573;28;19965;-59
2023/09/16 01:21:22;;;;;;;;;;;;;;;;;;5041945;28;19931;-58
2023/09/16 01:23:48;;;;;;;;;;;;;;;;;;5041649;28;19970;-58
2023/09/16 01:26:14;;;;;;;;;;;;;;;;;;5039870;28;19925;-58
2023/09/16 01:28:40;;;;;;;;;;;;;;;;;;5041341;28;19972;-58
2023/09/16 01:31:06;;;;;;;;;;;;;;;;;;5042426;28;20043;-59
2023/09/16 01:33:32;;;;;;;;;;;;;;;;;;5045027;28;20031;-59
2023/09/16 01:35:58;;;;;;;;;;;;;;;;;;5047014;28;20360;-58
2023/09/16 01:38:24;;;;;;;;;;;;;;;;;;5053794;28;19929;-59
2023/09/16 01:40:50;;;;;;;;;;;;;;;;;;5035939;28;19925;-60
2023/09/16 01:43:16;;;;;;;;;;;;;;;;;;5029818;28;19924;-59
2023/09/16 01:45:42;;;;;;;;;;;;;;;;;;5033247;28;19928;-59
2023/09/16 01:48:08;;;;;;;;;;;;;;;;;;5047029;28;20351;-59
2023/09/16 01:50:35;;;;;;;;;;;;;;;;;;5027574;28;19925;-60
2023/09/16 01:53:01;;;;;;;;;;;;;;;;;;5053282;28;21247;-60
2023/09/16 01:55:27;;;;;;;;;;;;;;;;;;5043789;28;20012;-60
2023/09/16 01:57:53;;;;;;;;;;;;;;;;;;5045320;28;20549;-59
2023/09/16 02:00:19;;;;;;;;;;;;;;;;;;5029558;28;19929;-59
2023/09/16 02:02:45;;;;;;;;;;;;;;;;;;5051985;28;20373;-59
2023/09/16 02:05:11;;;;;;;;;;;;;;;;;;5042157;28;19947;-60
2023/09/16 02:07:36;;;;;;;;;;;;;;;;;;5041172;28;19931;-59
2023/09/16 02:10:03;;;;;;;;;;;;;;;;;;5044656;28;19925;-60
2023/09/16 02:12:29;;;;;;;;;;;;;;;;;;5048905;28;19921;-59
2023/09/16 02:14:55;;;;;;;;;;;;;;;;;;5046251;28;19971;-59
2023/09/16 02:17:21;;;;;;;;;;;;;;;;;;5011903;28;19975;-59
2023/09/16 02:19:47;;;;;;;;;;;;;;;;;;5040268;28;20032;-59
2023/09/16 02:22:12;;;;;;;;;;;;;;;;;;5037807;28;19952;-60
2023/09/16 02:24:38;;;;;;;;;;;;;;;;;;5039665;28;19920;-59
2023/09/16 02:27:04;;;;;;;;;;;;;;;;;;5037314;28;19932;-61
2023/09/16 02:29:30;;;;;;;;;;;;;;;;;;5042516;28;19929;-60
2023/09/16 02:31:56;;;;;;;;;;;;;;;;;;5048936;28;19929;-59
2023/09/16 02:34:22;;;;;;;;;;;;;;;;;;5042652;28;20595;-58
2023/09/16 02:36:48;;;;;;;;;;;;;;;;;;5040536;28;19929;-58
2023/09/16 02:39:14;;;;;;;;;;;;;;;;;;5034070;28;19995;-58
2023/09/16 02:41:40;;;;;;;;;;;;;;;;;;5012948;28;19940;-58
2023/09/16 02:44:07;;;;;;;;;;;;;;;;;;5045610;28;19924;-58
2023/09/16 02:46:33;;;;;;;;;;;;;;;;;;5039719;28;19932;-59
2023/09/16 02:48:59;;;;;;;;;;;;;;;;;;5041388;28;19928;-58
2023/09/16 02:51:25;;;;;;;;;;;;;;;;;;5045130;28;20352;-58
2023/09/16 02:53:51;;;;;;;;;;;;;;;;;;5046951;28;20635;-58
2023/09/16 02:56:17;;;;;;;;;;;;;;;;;;5036595;28;19933;-58
2023/09/16 02:58:43;;;;;;;;;;;;;;;;;;5039494;28;20039;-59
2023/09/16 03:01:09;;;;;;;;;;;;;;;;;;5040162;28;19931;-59
2023/09/16 03:03:35;;;;;;;;;;;;;;;;;;5040169;28;19928;-59
2023/09/16 03:06:01;;;;;;;;;;;;;;;;;;5026034;28;20262;-59
2023/09/16 03:08:27;;;;;;;;;;;;;;;;;;5038882;28;19978;-59
2023/09/16 03:10:53;;;;;;;;;;;;;;;;;;5033524;28;20601;-59
2023/09/16 03:13:19;;;;;;;;;;;;;;;;;;5042467;28;19929;-59
2023/09/16 03:15:45;;;;;;;;;;;;;;;;;;5046346;28;20290;-59
2023/09/16 03:18:11;;;;;;;;;;;;;;;;;;5034210;28;20409;-58
2023/09/16 03:20:37;;;;;;;;;;;;;;;;;;5037503;28;19975;-59
2023/09/16 03:23:03;;;;;;;;;;;;;;;;;;5041240;28;19929;-59
2023/09/16 03:25:29;;;;;;;;;;;;;;;;;;5039933;28;20421;-59
2023/09/16 03:27:55;;;;;;;;;;;;;;;;;;5037336;28;19928;-59
2023/09/16 03:30:21;;;;;;;;;;;;;;;;;;5039752;28;19929;-58
2023/09/16 03:32:47;;;;;;;;;;;;;;;;;;5040304;28;19920;-58
2023/09/16 03:35:13;;;;;;;;;;;;;;;;;;5036792;28;19951;-59
2023/09/16 03:37:38;;;;;;;;;;;;;;;;;;5045049;28;19921;-58
2023/09/16 03:40:04;;;;;;;;;;;;;;;;;;5034808;28;19933;-59
2023/09/16 03:42:30;;;;;;;;;;;;;;;;;;5032277;28;19982;-58
2023/09/16 03:44:56;;;;;;;;;;;;;;;;;;5038185;28;19924;-60
2023/09/16 03:47:22;;;;;;;;;;;;;;;;;;5039727;28;19982;-60
2023/09/16 03:49:48;;;;;;;;;;;;;;;;;;5015942;28;19929;-58
2023/09/16 03:52:14;;;;;;;;;;;;;;;;;;5018566;28;19975;-58
2023/09/16 03:54:40;;;;;;;;;;;;;;;;;;5038456;28;19944;-59
2023/09/16 03:57:06;;;;;;;;;;;;;;;;;;5038352;28;20012;-58
2023/09/16 03:59:32;;;;;;;;;;;;;;;;;;5041616;28;19936;-59
2023/09/16 04:01:57;;;;;;;;;;;;;;;;;;5040064;28;19932;-59
2023/09/16 04:04:23;;;;;;;;;;;;;;;;;;5036079;28;19929;-60
2023/09/16 04:06:49;;;;;;;;;;;;;;;;;;5040704;28;20646;-59
2023/09/16 04:09:16;;;;;;;;;;;;;;;;;;5038838;28;19964;-60
2023/09/16 04:11:42;;;;;;;;;;;;;;;;;;5033984;28;19929;-60
2023/09/16 04:14:07;;;;;;;;;;;;;;;;;;5039041;28;19929;-59
2023/09/16 04:16:33;;;;;;;;;;;;;;;;;;5033633;28;20404;-60
2023/09/16 04:18:59;;;;;;;;;;;;;;;;;;5038833;28;19929;-59
2023/09/16 04:21:26;;;;;;;;;;;;;;;;;;5039247;28;19929;-59
2023/09/16 04:23:52;;;;;;;;;;;;;;;;;;5038593;28;19939;-60
2023/09/16 04:26:20;;;;;;;;;;;;;;;;;;5037107;28;19984;-59
2023/09/16 04:28:46;;;;;;;;;;;;;;;;;;5036572;28;20082;-59
2023/09/16 04:31:12;;;;;;;;;;;;;;;;;;5042540;28;20019;-61
2023/09/16 04:33:38;;;;;;;;;;;;;;;;;;5017301;28;19929;-59
2023/09/16 04:36:04;;;;;;;;;;;;;;;;;;5045312;28;19931;-59
2023/09/16 04:38:30;;;;;;;;;;;;;;;;;;5037722;28;19956;-59
2023/09/16 04:40:56;;;;;;;;;;;;;;;;;;5042899;28;20377;-59
2023/09/16 04:43:25;;;;;;;;;;;;;;;;;;5037758;28;19994;-60
2023/09/16 04:45:51;;;;;;;;;;;;;;;;;;5039335;28;20452;-60
2023/09/16 04:48:17;;;;;;;;;;;;;;;;;;5038986;28;20019;-59
2023/09/16 04:50:42;;;;;;;;;;;;;;;;;;5045146;28;19925;-59
2023/09/16 04:53:09;;;;;;;;;;;;;;;;;;5040559;28;19929;-59
2023/09/16 04:55:35;;;;;;;;;;;;;;;;;;5041306;28;19929;-59
2023/09/16 04:58:01;;;;;;;;;;;;;;;;;;5042735;28;19925;-58
2023/09/16 05:00:33;;;;;;;;;;;;;;;;;;5042170;28;19925;-59
2023/09/16 05:02:58;;;;;;;;;;;;;;;;;;5038602;28;20012;-59
2023/09/16 05:05:24;;;;;;;;;;;;;;;;;;5039971;28;19999;-59
2023/09/16 05:07:50;;;;;;;;;;;;;;;;;;5039181;28;20411;-59
2023/09/16 05:10:16;;;;;;;;;;;;;;;;;;5042284;28;19929;-59
2023/09/16 05:12:42;;;;;;;;;;;;;;;;;;5019613;28;19924;-59
2023/09/16 05:15:08;;;;;;;;;;;;;;;;;;5046994;28;20508;-59
2023/09/16 05:17:35;;;;;;;;;;;;;;;;;;5032805;28;20341;-61
2023/09/16 05:20:01;;;;;;;;;;;;;;;;;;5047521;28;19998;-59
2023/09/16 05:22:26;;;;;;;;;;;;;;;;;;5033488;28;20387;-59
2023/09/16 05:24:52;;;;;;;;;;;;;;;;;;5046866;28;19924;-59
2023/09/16 05:27:18;;;;;;;;;;;;;;;;;;5043802;28;19978;-59
2023/09/16 05:29:44;;;;;;;;;;;;;;;;;;5036452;28;19928;-59
2023/09/16 05:32:10;;;;;;;;;;;;;;;;;;5047467;28;19933;-59
2023/09/16 05:34:36;;;;;;;;;;;;;;;;;;5038421;28;19936;-59
2023/09/16 05:37:03;;;;;;;;;;;;;;;;;;5039167;28;20305;-59
2023/09/16 05:39:29;;;;;;;;;;;;;;;;;;5022893;28;19990;-59
2023/09/16 05:41:55;;;;;;;;;;;;;;;;;;5040472;28;19929;-59
2023/09/16 05:44:21;;;;;;;;;;;;;;;;;;5041626;28;19937;-59
2023/09/16 05:46:47;;;;;;;;;;;;;;;;;;5027462;28;19928;-59
2023/09/16 05:49:13;;;;;;;;;;;;;;;;;;5038964;28;20631;-59
2023/09/16 05:51:39;;;;;;;;;;;;;;;;;;5031354;28;19928;-59
2023/09/16 05:54:05;;;;;;;;;;;;;;;;;;5041558;28;19974;-58
2023/09/16 05:56:32;;;;;;;;;;;;;;;;;;5039701;28;19929;-59
2023/09/16 05:58:58;;;;;;;;;;;;;;;;;;5035571;28;20389;-61
2023/09/16 06:01:24;;;;;;;;;;;;;;;;;;5039506;28;19928;-61
2023/09/16 06:03:51;;;;;;;;;;;;;;;;;;5041994;28;19990;-60
2023/09/16 06:06:17;;;;;;;;;;;;;;;;;;5038312;28;20847;-58
2023/09/16 06:08:43;;;;;;;;;;;;;;;;;;5036443;28;19925;-61
2023/09/16 06:11:10;;;;;;;;;;;;;;;;;;5037067;28;19974;-60
2023/09/16 06:13:37;;;;;;;;;;;;;;;;;;5038545;28;19943;-59
2023/09/16 06:16:03;;;;;;;;;;;;;;;;;;5032981;28;19929;-60
2023/09/16 06:18:29;;;;;;;;;;;;;;;;;;5028711;28;19933;-59
2023/09/16 06:20:55;;;;;;;;;;;;;;;;;;5042014;28;20469;-60
2023/09/16 06:23:21;;;;;;;;;;;;;;;;;;5041247;28;20294;-59
2023/09/16 06:25:47;;;;;;;;;;;;;;;;;;5041087;28;20021;-60
2023/09/16 06:28:13;;;;;;;;;;;;;;;;;;5039657;28;19940;-60
2023/09/16 06:30:39;;;;;;;;;;;;;;;;;;5040557;28;19928;-60
2023/09/16 06:33:05;;;;;;;;;;;;;;;;;;5035288;28;20424;-59
2023/09/16 06:35:31;;;;;;;;;;;;;;;;;;5035459;28;20545;-59
2023/09/16 06:37:57;;;;;;;;;;;;;;;;;;5035802;28;19925;-59
2023/09/16 06:40:22;;;;;;;;;;;;;;;;;;5034527;28;19932;-60
2023/09/16 06:42:48;;;;;;;;;;;;;;;;;;5043222;28;19990;-62
2023/09/16 06:45:14;;;;;;;;;;;;;;;;;;5048000;28;20455;-59
2023/09/16 06:47:40;;;;;;;;;;;;;;;;;;5038981;28;19928;-59
2023/09/16 06:50:06;;;;;;;;;;;;;;;;;;5038960;28;19933;-60
2023/09/16 06:52:32;;;;;;;;;;;;;;;;;;5036748;28;19932;-61
2023/09/16 06:54:58;;;;;;;;;;;;;;;;;;5042424;28;19921;-57
2023/09/16 06:57:24;;;;;;;;;;;;;;;;;;5029972;28;20282;-57
2023/09/16 06:59:50;;;;;;;;;;;;;;;;;;5041859;28;19921;-57
2023/09/16 07:02:16;;;;;;;;;;;;;;;;;;5043852;28;19960;-58
2023/09/16 07:04:42;;;;;;;;;;;;;;;;;;5040095;28;20016;-58
2023/09/16 07:07:08;;;;;;;;;;;;;;;;;;5044409;28;19924;-58
2023/09/16 07:09:34;;;;;;;;;;;;;;;;;;5041442;28;20002;-59
2023/09/16 07:12:00;;;;;;;;;;;;;;;;;;5024962;28;19920;-59
2023/09/16 07:14:26;;;;;;;;;;;;;;;;;;5037156;28;19926;-59
2023/09/16 07:16:52;;;;;;;;;;;;;;;;;;5039079;28;19932;-60
2023/09/16 07:19:18;;;;;;;;;;;;;;;;;;5041493;28;19920;-62
2023/09/16 07:21:44;;;;;;;;;;;;;;;;;;5026426;28;19925;-59
2023/09/16 07:24:09;;;;;;;;;;;;;;;;;;5043392;28;19950;-59
2023/09/16 07:26:35;;;;;;;;;;;;;;;;;;5031074;28;19968;-59
2023/09/16 07:29:01;;;;;;;;;;;;;;;;;;5043113;28;19924;-58
2023/09/16 07:31:27;;;;;;;;;;;;;;;;;;5024979;28;19925;-58
2023/09/16 07:33:53;;;;;;;;;;;;;;;;;;5030315;28;20559;-59
2023/09/16 07:36:19;;;;;;;;;;;;;;;;;;5043296;28;20083;-58
2023/09/16 07:38:45;;;;;;;;;;;;;;;;;;5023611;28;19929;-58
2023/09/16 07:41:11;;;;;;;;;;;;;;;;;;5040092;28;20302;-59
2023/09/16 07:43:37;;;;;;;;;;;;;;;;;;5041498;28;19925;-59
2023/09/16 07:46:03;;;;;;;;;;;;;;;;;;5044291;28;19925;-59
2023/09/16 07:48:29;;;;;;;;;;;;;;;;;;5042564;28;19925;-58
2023/09/16 07:50:55;;;;;;;;;;;;;;;;;;5035651;28;20665;-58
2023/09/16 07:53:20;;;;;;;;;;;;;;;;;;5045324;28;19933;-58
2023/09/16 07:55:46;;;;;;;;;;;;;;;;;;5049303;28;20388;-58
2023/09/16 07:58:12;;;;;;;;;;;;;;;;;;5052577;28;19929;-59
2023/09/16 08:00:38;;;;;;;;;;;;;;;;;;5042159;28;19925;-58
2023/09/16 08:03:04;;;;;;;;;;;;;;;;;;5022501;28;19925;-59
2023/09/16 08:05:30;;;;;;;;;;;;;;;;;;5043208;28;20128;-58
2023/09/16 08:07:56;;;;;;;;;;;;;;;;;;5039350;28;20012;-58
2023/09/16 08:10:22;;;;;;;;;;;;;;;;;;5042239;28;20019;-59
2023/09/16 08:12:48;;;;;;;;;;;;;;;;;;5037421;28;19928;-58
2023/09/16 08:15:14;;;;;;;;;;;;;;;;;;5039408;28;19925;-58
2023/09/16 08:17:40;;;;;;;;;;;;;;;;;;5034268;28;19948;-59
2023/09/16 08:20:06;;;;;;;;;;;;;;;;;;5033011;28;19950;-59
2023/09/16 08:22:31;;;;;;;;;;;;;;;;;;5045387;28;20687;-59
2023/09/16 08:24:57;;;;;;;;;;;;;;;;;;5046067;28;19929;-58
2023/09/16 08:27:23;;;;;;;;;;;;;;;;;;5048929;28;19998;-59
2023/09/16 08:29:49;;;;;;;;;;;;;;;;;;5046812;28;20330;-59
2023/09/16 08:32:15;;;;;;;;;;;;;;;;;;5038804;28;19925;-58
2023/09/16 08:34:41;;;;;;;;;;;;;;;;;;5038135;28;20542;-58
2023/09/16 08:37:07;;;;;;;;;;;;;;;;;;5038324;28;19925;-59
2023/09/16 08:39:33;;;;;;;;;;;;;;;;;;5035558;28;19921;-59
2023/09/16 08:41:59;;;;;;;;;;;;;;;;;;5026221;28;20287;-59
2023/09/16 08:44:25;;;;;;;;;;;;;;;;;;5030956;28;19975;-59
2023/09/16 08:46:51;;;;;;;;;;;;;;;;;;5029345;28;19933;-58
2023/09/16 08:49:16;;;;;;;;;;;;;;;;;;5038909;28;19932;-58
2023/09/16 08:51:45;;;;;;;;;;;;;;;;;;5052928;28;20015;-59
2023/09/16 08:54:12;;;;;;;;;;;;;;;;;;5039937;28;19925;-59
2023/09/16 08:56:38;;;;;;;;;;;;;;;;;;5043306;28;19925;-60
2023/09/16 08:59:04;;;;;;;;;;;;;;;;;;5045267;28;19998;-60
2023/09/16 09:01:30;;;;;;;;;;;;;;;;;;5039874;28;20006;-60
2023/09/16 09:03:56;;;;;;;;;;;;;;;;;;5040146;28;19975;-59
2023/09/16 09:06:22;;;;;;;;;;;;;;;;;;5040852;28;20050;-59
2023/09/16 09:08:48;;;;;;;;;;;;;;;;;;5044829;28;20391;-59
2023/09/16 09:11:15;;;;;;;;;;;;;;;;;;5040011;28;20012;-60
2023/09/16 09:13:40;;;;;;;;;;;;;;;;;;5036679;28;20639;-59
2023/09/16 09:16:06;;;;;;;;;;;;;;;;;;5034847;28;19925;-60
2023/09/16 09:18:32;;;;;;;;;;;;;;;;;;5013855;28;19939;-60
2023/09/16 09:20:58;;;;;;;;;;;;;;;;;;5034797;28;20197;-59
2023/09/16 09:23:24;;;;;;;;;;;;;;;;;;5040122;28;20502;-60
2023/09/16 09:25:50;;;;;;;;;;;;;;;;;;5042626;28;20616;-59
2023/09/16 09:28:16;;;;;;;;;;;;;;;;;;5043092;28;19932;-60
2023/09/16 09:30:42;;;;;;;;;;;;;;;;;;5041945;28;19975;-60
2023/09/16 09:33:08;;;;;;;;;;;;;;;;;;5037971;28;19928;-60
2023/09/16 09:35:34;;;;;;;;;;;;;;;;;;5035942;28;20655;-59
2023/09/16 09:38:00;;;;;;;;;;;;;;;;;;5031724;28;19951;-59
2023/09/16 09:40:26;;;;;;;;;;;;;;;;;;5014363;28;19956;-59
2023/09/16 09:42:52;;;;;;;;;;;;;;;;;;5034071;28;19933;-59
2023/09/16 09:45:18;;;;;;;;;;;;;;;;;;5032821;28;19979;-59
2023/09/16 09:47:44;;;;;;;;;;;;;;;;;;5026597;28;19933;-60
2023/09/16 09:50:10;;;;;;;;;;;;;;;;;;5031012;28;20272;-60
2023/09/16 09:52:36;;;;;;;;;;;;;;;;;;5040523;28;19974;-60
2023/09/16 09:55:02;;;;;;;;;;;;;;;;;;5045135;28;19931;-60
2023/09/16 09:57:28;;;;;;;;;;;;;;;;;;5042807;28;19960;-59
2023/09/16 09:59:53;;;;;;;;;;;;;;;;;;5039642;28;20392;-60
2023/09/16 10:02:19;;;;;;;;;;;;;;;;;;5038876;28;20362;-60
2023/09/16 10:04:45;;;;;;;;;;;;;;;;;;5040007;28;20019;-60
2023/09/16 10:07:11;;;;;;;;;;;;;;;;;;5036638;28;19929;-60
2023/09/16 10:09:37;;;;;;;;;;;;;;;;;;5033319;28;19932;-60
2023/09/16 10:12:03;;;;;;;;;;;;;;;;;;5040992;28;19925;-60
2023/09/16 10:14:29;;;;;;;;;;;;;;;;;;5031261;28;19932;-59
2023/09/16 10:16:55;;;;;;;;;;;;;;;;;;5031380;28;20413;-59
2023/09/16 10:19:21;;;;;;;;;;;;;;;;;;5041548;28;19933;-59
2023/09/16 10:21:47;;;;;;;;;;;;;;;;;;5042003;28;19925;-60
2023/09/16 10:24:12;;;;;;;;;;;;;;;;;;5039994;28;19928;-61
2023/09/16 10:26:38;;;;;;;;;;;;;;;;;;5043421;28;20417;-60
2023/09/16 10:29:04;;;;;;;;;;;;;;;;;;5043434;28;19925;-60
2023/09/16 10:31:30;;;;;;;;;;;;;;;;;;5043763;28;20007;-59
2023/09/16 10:33:56;;;;;;;;;;;;;;;;;;5041856;28;19951;-60
2023/09/16 10:36:22;;;;;;;;;;;;;;;;;;5039652;28;19935;-60
2023/09/16 10:38:48;;;;;;;;;;;;;;;;;;5041097;28;20019;-60
2023/09/16 10:41:14;;;;;;;;;;;;;;;;;;5042392;28;19925;-60
2023/09/16 10:43:40;;;;;;;;;;;;;;;;;;5043804;28;19986;-60
2023/09/16 10:46:06;;;;;;;;;;;;;;;;;;5040793;28;19926;-59
2023/09/16 10:48:32;;;;;;;;;;;;;;;;;;5038131;28;20453;-61
2023/09/16 10:50:58;;;;;;;;;;;;;;;;;;5033653;28;19979;-60
2023/09/16 10:53:24;;;;;;;;;;;;;;;;;;5043231;28;19921;-60
2023/09/16 10:55:50;;;;;;;;;;;;;;;;;;5046728;28;19971;-60
2023/09/16 10:58:16;;;;;;;;;;;;;;;;;;5046677;28;19925;-60
2023/09/16 11:00:42;;;;;;;;;;;;;;;;;;5042939;28;19925;-60
2023/09/16 11:03:08;;;;;;;;;;;;;;;;;;5041312;28;19986;-59
2023/09/16 11:05:34;;;;;;;;;;;;;;;;;;5042453;28;20000;-60
2023/09/16 11:08:00;;;;;;;;;;;;;;;;;;5044232;28;19929;-60
2023/09/16 11:10:26;;;;;;;;;;;;;;;;;;5053633;28;19929;-60
2023/09/16 11:12:52;;;;;;;;;;;;;;;;;;5036206;28;19925;-60
2023/09/16 11:15:18;;;;;;;;;;;;;;;;;;5038654;28;20299;-60
2023/09/16 11:17:43;;;;;;;;;;;;;;;;;;5025058;28;19968;-60
2023/09/16 11:20:09;;;;;;;;;;;;;;;;;;5028136;28;19928;-60
2023/09/16 11:22:35;;;;;;;;;;;;;;;;;;5043821;28;20505;-60
2023/09/16 11:25:01;;;;;;;;;;;;;;;;;;5042591;28;19931;-63
2023/09/16 11:27:27;;;;;;;;;;;;;;;;;;5043013;28;19925;-60
2023/09/16 11:29:53;;;;;;;;;;;;;;;;;;5018744;28;19929;-60
2023/09/16 11:32:21;;;;;;;;;;;;;;;;;;5043078;28;19925;-59
2023/09/16 11:34:47;;;;;;;;;;;;;;;;;;5038231;28;19971;-59
2023/09/16 11:37:13;;;;;;;;;;;;;;;;;;5036719;28;19929;-61
2023/09/16 11:39:43;;;;;;;;;;;;;;;;;;5031692;28;20165;-60
2023/09/16 11:42:09;;;;;;;;;;;;;;;;;;5035558;28;19972;-61
2023/09/16 11:44:35;;;;;;;;;;;;;;;;;;5036618;28;19928;-60
2023/09/16 11:47:01;;;;;;;;;;;;;;;;;;5031753;28;19933;-59
2023/09/16 11:49:27;;;;;;;;;;;;;;;;;;5034495;28;19925;-60
2023/09/16 11:51:53;;;;;;;;;;;;;;;;;;5051008;28;19951;-60
2023/09/16 11:54:19;;;;;;;;;;;;;;;;;;5037731;28;19929;-60
2023/09/16 11:56:45;;;;;;;;;;;;;;;;;;5021338;28;19979;-60
2023/09/16 11:59:11;;;;;;;;;;;;;;;;;;5016925;28;19925;-60
2023/09/16 12:01:37;;;;;;;;;;;;;;;;;;5035433;28;19924;-60
2023/09/16 12:04:06;;;;;;;;;;;;;;;;;;5032598;28;20438;-60
2023/09/16 12:06:32;;;;;;;;;;;;;;;;;;5032445;28;19935;-60
2023/09/16 12:08:58;;;;;;;;;;;;;;;;;;5037676;28;19925;-60
2023/09/16 12:11:24;;;;;;;;;;;;;;;;;;5029294;28;19925;-60
2023/09/16 12:13:50;;;;;;;;;;;;;;;;;;5028825;28;20017;-60
2023/09/16 12:16:16;;;;;;;;;;;;;;;;;;5024830;28;19925;-60
2023/09/16 12:18:42;;;;;;;;;;;;;;;;;;5024555;28;19933;-60
2023/09/16 12:21:08;;;;;;;;;;;;;;;;;;5023189;28;19968;-60
2023/09/16 12:23:34;;;;;;;;;;;;;;;;;;5039622;28;19971;-60
2023/09/16 12:26:00;;;;;;;;;;;;;;;;;;5041219;28;19995;-60
2023/09/16 12:28:27;;;;;;;;;;;;;;;;;;5036574;28;19929;-60
2023/09/16 12:30:55;;;;;;;;;;;;;;;;;;5037796;28;19932;-60
2023/09/16 12:33:21;;;;;;;;;;;;;;;;;;5032495;28;19925;-60
2023/09/16 12:35:47;;;;;;;;;;;;;;;;;;5036805;28;19925;-59
2023/09/16 12:38:15;;;;;;;;;;;;;;;;;;5030438;28;19975;-60
2023/09/16 12:40:41;;;;;;;;;;;;;;;;;;5033411;28;19925;-59
2023/09/16 12:43:06;;;;;;;;;;;;;;;;;;5027331;28;19926;-59
2023/09/16 12:45:32;;;;;;;;;;;;;;;;;;5027923;28;19933;-60
2023/09/16 12:47:58;;;;;;;;;;;;;;;;;;5025161;28;20258;-59
2023/09/16 12:50:24;;;;;;;;;;;;;;;;;;5024120;28;19932;-59
2023/09/16 12:52:50;;;;;;;;;;;;;;;;;;5041952;28;19925;-59
2023/09/16 12:55:16;;;;;;;;;;;;;;;;;;5040866;28;19925;-59
2023/09/16 12:57:42;;;;;;;;;;;;;;;;;;5017164;28;19929;-60
2023/09/16 13:00:14;;;;;;;;;;;;;;;;;;5037433;28;19970;-59
2023/09/16 13:02:40;;;;;;;;;;;;;;;;;;5013791;28;19932;-59
2023/09/16 13:05:06;;;;;;;;;;;;;;;;;;5035216;28;19936;-60
2023/09/16 13:07:32;;;;;;;;;;;;;;;;;;5029658;28;19936;-59
2023/09/16 13:09:58;;;;;;;;;;;;;;;;;;5030685;28;19924;-60
2023/09/16 13:12:24;;;;;;;;;;;;;;;;;;5026682;28;19964;-59
2023/09/16 13:14:50;;;;;;;;;;;;;;;;;;5026424;28;20631;-59
2023/09/16 13:17:16;;;;;;;;;;;;;;;;;;5024536;28;19986;-59
2023/09/16 13:19:42;;;;;;;;;;;;;;;;;;5023544;28;19944;-60
2023/09/16 13:22:08;;;;;;;;;;;;;;;;;;5027789;28;19932;-60
2023/09/16 13:24:34;;;;;;;;;;;;;;;;;;5041432;28;19944;-60
2023/09/16 13:27:00;;;;;;;;;;;;;;;;;;5037826;28;20432;-60
2023/09/16 13:29:26;;;;;;;;;;;;;;;;;;5022701;28;19929;-59
2023/09/16 13:31:52;;;;;;;;;;;;;;;;;;5043690;28;19956;-60
2023/09/16 13:34:18;;;;;;;;;;;;;;;;;;5049528;28;19947;-60
2023/09/16 13:36:44;;;;;;;;;;;;;;;;;;5035211;28;19933;-60
2023/09/16 13:39:10;;;;;;;;;;;;;;;;;;5023950;28;19956;-60
2023/09/16 13:41:36;;;;;;;;;;;;;;;;;;5048716;28;19925;-61
2023/09/16 13:44:02;;;;;;;;;;;;;;;;;;5055614;28;19939;-61
2023/09/16 13:46:28;;;;;;;;;;;;;;;;;;5047733;28;19944;-60
2023/09/16 13:48:55;;;;;;;;;;;;;;;;;;5027192;28;19925;-59
2023/09/16 13:51:21;;;;;;;;;;;;;;;;;;5036268;28;19929;-60
2023/09/16 13:53:47;;;;;;;;;;;;;;;;;;5042496;28;19935;-60
2023/09/16 13:56:13;;;;;;;;;;;;;;;;;;5042447;28;19929;-60
2023/09/16 13:58:39;;;;;;;;;;;;;;;;;;5035677;28;20005;-60
2023/09/16 14:01:05;;;;;;;;;;;;;;;;;;5041294;28;19980;-60
2023/09/16 14:03:31;;;;;;;;;;;;;;;;;;5023424;28;19935;-60
2023/09/16 14:05:57;;;;;;;;;;;;;;;;;;5034532;28;20469;-60
2023/09/16 14:08:23;;;;;;;;;;;;;;;;;;5032275;28;19928;-60
2023/09/16 14:10:49;;;;;;;;;;;;;;;;;;5035211;28;19944;-60
2023/09/16 14:13:15;;;;;;;;;;;;;;;;;;5027340;28;19933;-60
2023/09/16 14:15:40;;;;;;;;;;;;;;;;;;5033998;28;19975;-60
2023/09/16 14:18:06;;;;;;;;;;;;;;;;;;5032540;28;19928;-60
2023/09/16 14:20:32;;;;;;;;;;;;;;;;;;5038293;28;19979;-61
2023/09/16 14:22:58;;;;;;;;;;;;;;;;;;5043007;28;19932;-60
2023/09/16 14:25:26;;;;;;;;;;;;;;;;;;5030631;28;19999;-60
2023/09/16 14:27:52;;;;;;;;;;;;;;;;;;5026602;28;20043;-60
2023/09/16 14:30:18;;;;;;;;;;;;;;;;;;5046265;28;20036;-60
2023/09/16 14:32:45;;;;;;;;;;;;;;;;;;5036175;28;19925;-60
2023/09/16 14:35:11;;;;;;;;;;;;;;;;;;5031423;28;19935;-60
2023/09/16 14:37:37;;;;;;;;;;;;;;;;;;5048629;28;20317;-61
2023/09/16 14:40:03;;;;;;;;;;;;;;;;;;5032911;28;19925;-61
2023/09/16 14:42:29;;;;;;;;;;;;;;;;;;5054523;28;19935;-60
2023/09/16 14:44:55;;;;;;;;;;;;;;;;;;5049924;28;19924;-61
2023/09/16 14:47:21;;;;;;;;;;;;;;;;;;5040339;28;19925;-60
2023/09/16 14:49:47;;;;;;;;;;;;;;;;;;5016694;28;19978;-60
2023/09/16 14:52:13;;;;;;;;;;;;;;;;;;5042488;28;19985;-61
2023/09/16 14:54:39;;;;;;;;;;;;;;;;;;5041172;28;19947;-61
2023/09/16 14:57:04;;;;;;;;;;;;;;;;;;5023402;28;19960;-60
2023/09/16 14:59:30;;;;;;;;;;;;;;;;;;5035729;28;19936;-61
2023/09/16 15:01:56;;;;;;;;;;;;;;;;;;5040111;28;19968;-60
2023/09/16 15:04:22;;;;;;;;;;;;;;;;;;5033244;28;20563;-61
2023/09/16 15:06:48;;;;;;;;;;;;;;;;;;5035871;28;19968;-60
2023/09/16 15:09:14;;;;;;;;;;;;;;;;;;5040090;28;19928;-61
2023/09/16 15:11:40;;;;;;;;;;;;;;;;;;5034042;28;19998;-61
2023/09/16 15:14:06;;;;;;;;;;;;;;;;;;5037428;28;20176;-63
2023/09/16 15:16:32;;;;;;;;;;;;;;;;;;5033960;28;20566;-61
2023/09/16 15:18:58;;;;;;;;;;;;;;;;;;5027834;28;20426;-60
2023/09/16 15:21:24;;;;;;;;;;;;;;;;;;5041248;28;20006;-61
2023/09/16 15:23:50;;;;;;;;;;;;;;;;;;5026538;28;19932;-61
2023/09/16 15:26:16;;;;;;;;;;;;;;;;;;5040126;28;19935;-60
2023/09/16 15:28:42;;;;;;;;;;;;;;;;;;5039164;28;20409;-60
2023/09/16 15:31:08;;;;;;;;;;;;;;;;;;5038581;28;19936;-60
2023/09/16 15:33:34;;;;;;;;;;;;;;;;;;5039810;28;19925;-60
2023/09/16 15:36:00;;;;;;;;;;;;;;;;;;5037293;28;20023;-60
2023/09/16 15:38:26;;;;;;;;;;;;;;;;;;5035500;28;20215;-60
2023/09/16 15:40:52;;;;;;;;;;;;;;;;;;5039082;28;19972;-60
2023/09/16 15:43:18;;;;;;;;;;;;;;;;;;5043363;28;20687;-61
2023/09/16 15:45:44;;;;;;;;;;;;;;;;;;5030240;28;19920;-60
2023/09/16 15:48:10;;;;;;;;;;;;;;;;;;5031112;28;19935;-61
2023/09/16 15:50:35;;;;;;;;;;;;;;;;;;5031052;28;19994;-61
2023/09/16 15:53:03;;;;;;;;;;;;;;;;;;5038794;28;21588;-61
2023/09/16 15:55:29;;;;;;;;;;;;;;;;;;5038193;28;20012;-61
2023/09/16 15:57:57;;;;;;;;;;;;;;;;;;5037164;28;19929;-61
2023/09/16 16:00:23;;;;;;;;;;;;;;;;;;5039721;28;19928;-61
2023/09/16 16:02:50;;;;;;;;;;;;;;;;;;5036320;28;19936;-60
2023/09/16 16:05:16;;;;;;;;;;;;;;;;;;5036160;28;19936;-61
2023/09/16 16:07:42;;;;;;;;;;;;;;;;;;5034539;28;20409;-61
2023/09/16 16:10:11;;;;;;;;;;;;;;;;;;5032805;28;19924;-60
2023/09/16 16:12:37;;;;;;;;;;;;;;;;;;5027066;28;20382;-61
2023/09/16 16:15:03;;;;;;;;;;;;;;;;;;5027456;28;19932;-61
2023/09/16 16:17:29;;;;;;;;;;;;;;;;;;5022440;28;19925;-60
2023/09/16 16:19:55;;;;;;;;;;;;;;;;;;5035056;28;19929;-62
2023/09/16 16:22:21;;;;;;;;;;;;;;;;;;5027537;28;20065;-61
2023/09/16 16:24:47;;;;;;;;;;;;;;;;;;5041220;28;19937;-63
2023/09/16 16:27:13;;;;;;;;;;;;;;;;;;5040809;28;20001;-63
2023/09/16 16:29:40;;;;;;;;;;;;;;;;;;5037882;28;19937;-66
2023/09/16 16:32:06;;;;;;;;;;;;;;;;;;5045307;28;19924;-65
2023/09/16 16:34:32;;;;;;;;;;;;;;;;;;5040243;28;19948;-65
2023/09/16 16:36:57;;;;;;;;;;;;;;;;;;5040100;28;20033;-63